createdAt,value
2022-08-11T00:00:22.941Z,14.36
2022-08-11T00:07:19.654Z,14.30
2022-08-11T00:13:54.295Z,14.23
2022-08-11T00:20:46.358Z,14.14
2022-08-11T00:27:41.629Z,14.07
2022-08-11T00:34:36.323Z,14.03
2022-08-11T00:41:27.808Z,14.06
2022-08-11T00:48:22.193Z,14.06
2022-08-11T00:55:34.203Z,14.00
2022-08-11T01:02:39.202Z,13.95
2022-08-11T01:09:34.259Z,13.87
2022-08-11T01:16:45.721Z,13.76
2022-08-11T01:23:36.292Z,13.68
2022-08-11T01:30:48.278Z,13.58
2022-08-11T01:38:04.301Z,13.47
2022-08-11T01:45:19.183Z,13.37
2022-08-11T01:52:38.297Z,13.31
2022-08-11T01:59:51.084Z,13.27
2022-08-11T02:06:53.789Z,13.23
2022-08-11T02:14:01.237Z,13.17
2022-08-11T02:20:45.847Z,13.11
2022-08-11T02:27:38.722Z,13.07
2022-08-11T02:34:59.611Z,13.04
2022-08-11T02:42:07.696Z,13.00
2022-08-11T02:49:31.004Z,12.96
2022-08-11T02:56:39.780Z,12.92
2022-08-11T03:03:48.993Z,12.87
2022-08-11T03:11:07.472Z,12.81
2022-08-11T03:17:57.297Z,12.74
2022-08-11T03:24:58.303Z,12.72
2022-08-11T03:31:33.408Z,12.69
2022-08-11T03:38:18.555Z,12.67
2022-08-11T03:45:41.880Z,12.67
2022-08-11T03:52:54.566Z,12.68
2022-08-11T03:59:44.744Z,12.73
2022-08-11T04:05:56.064Z,12.92
2022-08-11T04:13:02.018Z,13.10
2022-08-11T04:20:17.213Z,13.25
2022-08-11T04:27:37.380Z,13.37
2022-08-11T04:34:35.262Z,13.56
2022-08-11T04:41:36.893Z,13.77
2022-08-11T04:48:33.847Z,14.00
2022-08-11T04:55:22.341Z,14.26
2022-08-11T05:02:17.054Z,14.57
2022-08-11T05:09:23.599Z,14.95
2022-08-11T05:15:58.817Z,15.26
2022-08-11T05:23:01.418Z,15.55
2022-08-11T05:29:46.482Z,15.80
2022-08-11T05:36:40.207Z,16.04
2022-08-11T05:42:57.909Z,16.26
2022-08-11T05:49:59.897Z,16.51
2022-08-11T05:56:51.676Z,16.76
2022-08-11T06:03:34.960Z,17.03
2022-08-11T06:10:40.276Z,17.30
2022-08-11T06:17:38.918Z,17.59
2022-08-11T06:24:22.005Z,17.83
2022-08-11T06:30:25.296Z,18.01
2022-08-11T06:37:24.574Z,18.19
2022-08-11T06:43:55.306Z,18.43
2022-08-11T06:49:41.588Z,18.64
2022-08-11T06:55:57.640Z,18.90
2022-08-11T07:01:57.769Z,19.20
2022-08-11T07:07:30.975Z,19.50
2022-08-11T07:13:56.775Z,19.85
2022-08-11T07:19:45.718Z,20.18
2022-08-11T07:25:36.021Z,20.43
2022-08-11T07:31:10.498Z,20.69
2022-08-11T07:36:35.774Z,20.95
2022-08-11T07:42:29.074Z,21.35
2022-08-11T07:48:00.172Z,21.67
2022-08-11T07:53:58.619Z,21.92
2022-08-11T08:00:00.641Z,22.21
2022-08-11T08:06:36.168Z,22.62
2022-08-11T08:12:05.537Z,22.99
2022-08-11T08:18:09.138Z,23.36
2022-08-11T08:24:14.055Z,23.70
2022-08-11T08:29:56.501Z,24.04
2022-08-11T08:35:55.929Z,24.32
2022-08-11T08:41:36.925Z,24.80
2022-08-11T08:47:06.945Z,25.38
2022-08-11T08:52:44.062Z,25.71
2022-08-11T08:58:10.793Z,25.65
2022-08-11T09:04:02.782Z,25.50
2022-08-11T09:09:29.081Z,25.29
2022-08-11T09:15:12.067Z,24.97
2022-08-11T09:20:27.857Z,24.68
2022-08-11T09:26:37.393Z,24.49
2022-08-11T09:32:09.100Z,24.25
2022-08-11T09:37:54.287Z,24.13
2022-08-11T09:43:44.379Z,24.38
2022-08-11T09:48:54.502Z,24.73
2022-08-11T09:54:07.970Z,24.68
2022-08-11T09:59:32.207Z,24.46
2022-08-11T10:05:20.678Z,24.44
2022-08-11T10:10:46.165Z,24.69
2022-08-11T10:16:16.328Z,24.98
2022-08-11T10:22:17.235Z,25.07
2022-08-11T10:28:16.810Z,25.13
2022-08-11T10:34:29.217Z,25.28
2022-08-11T10:40:28.871Z,25.17
2022-08-11T10:46:04.563Z,25.21
2022-08-11T10:51:51.051Z,25.31
2022-08-11T10:58:04.632Z,25.42
2022-08-11T11:03:42.219Z,25.63
2022-08-11T11:09:03.703Z,25.59
2022-08-11T11:14:45.736Z,25.38
2022-08-11T11:20:34.556Z,25.26
2022-08-11T11:26:10.452Z,25.32
2022-08-11T11:31:48.669Z,25.58
2022-08-11T11:37:01.099Z,26.09
2022-08-11T11:42:20.039Z,26.52
2022-08-11T11:47:23.350Z,26.85
2022-08-11T11:52:27.047Z,26.78
2022-08-11T11:57:59.159Z,26.47
2022-08-11T12:03:26.796Z,26.36
2022-08-11T12:08:38.184Z,26.41
2022-08-11T12:13:50.570Z,26.65
2022-08-11T12:19:18.832Z,26.68
2022-08-11T12:24:51.127Z,26.19
2022-08-11T12:29:57.501Z,25.91
2022-08-11T12:35:20.698Z,25.60
2022-08-11T12:41:19.366Z,25.39
2022-08-11T12:46:53.464Z,25.54
2022-08-11T12:52:15.709Z,25.40
2022-08-11T12:58:04.639Z,25.08
2022-08-11T13:03:38.968Z,25.18
2022-08-11T13:09:49.786Z,25.69
2022-08-11T13:15:58.839Z,26.18
2022-08-11T13:21:26.475Z,26.34
2022-08-11T13:26:50.289Z,26.23
2022-08-11T13:32:01.112Z,26.03
2022-08-11T13:37:06.316Z,25.85
2022-08-11T13:42:44.246Z,25.88
2022-08-11T13:47:55.264Z,25.81
2022-08-11T13:53:35.587Z,25.87
2022-08-11T13:59:04.253Z,25.96
2022-08-11T14:04:30.584Z,26.04
2022-08-11T14:10:21.039Z,26.10
2022-08-11T14:15:48.443Z,26.24
2022-08-11T14:21:43.463Z,26.49
2022-08-11T14:28:29.586Z,26.72
2022-08-11T14:33:16.607Z,26.61
2022-08-11T14:39:47.242Z,26.16
2022-08-11T14:45:25.900Z,24.92
2022-08-11T14:51:36.700Z,23.67
2022-08-11T14:57:19.959Z,22.08
2022-08-11T15:03:28.195Z,20.33
2022-08-11T15:08:55.907Z,18.94
2022-08-11T15:14:08.281Z,17.87
2022-08-11T15:19:36.678Z,17.19
2022-08-11T15:24:44.150Z,16.84
2022-08-11T15:30:33.441Z,16.67
2022-08-11T15:36:00.102Z,16.59
2022-08-11T15:41:35.785Z,16.56
2022-08-11T15:47:04.089Z,16.45
2022-08-11T15:52:50.128Z,16.41
2022-08-11T15:58:44.391Z,16.35
2022-08-11T16:04:13.326Z,16.34
2022-08-11T16:10:34.272Z,16.35
2022-08-11T16:16:17.400Z,16.41
2022-08-11T16:21:54.465Z,16.45
2022-08-11T16:27:24.493Z,16.59
2022-08-11T16:32:49.394Z,16.74
2022-08-11T16:38:35.799Z,16.81
2022-08-11T16:44:37.699Z,16.81
2022-08-11T16:50:24.269Z,16.81
2022-08-11T16:56:03.192Z,16.79
2022-08-11T17:01:35.498Z,16.78
2022-08-11T17:07:40.164Z,16.79
2022-08-11T17:13:58.397Z,16.73
2022-08-11T17:20:40.730Z,16.67
2022-08-11T17:26:25.754Z,16.60
2022-08-11T17:31:57.300Z,16.58
2022-08-11T17:37:03.162Z,16.52
2022-08-11T17:42:24.906Z,16.43
2022-08-11T17:48:20.206Z,16.33
2022-08-11T17:54:16.932Z,16.23
2022-08-11T17:59:32.258Z,16.14
2022-08-11T18:05:33.579Z,16.05
2022-08-11T18:12:07.065Z,15.95
2022-08-11T18:19:08.218Z,15.84
2022-08-11T18:25:45.240Z,15.73
2022-08-11T18:32:00.995Z,15.63
2022-08-11T18:38:08.456Z,15.52
2022-08-11T18:43:41.474Z,15.42
2022-08-11T18:50:01.783Z,15.33
2022-08-11T18:55:20.428Z,15.25
2022-08-11T19:00:48.507Z,15.20
2022-08-11T19:06:55.140Z,15.22
2022-08-11T19:12:31.896Z,15.26
2022-08-11T19:18:24.854Z,15.30
2022-08-11T19:24:02.868Z,15.42
2022-08-11T19:30:07.092Z,15.56
2022-08-11T19:35:10.543Z,15.56
2022-08-11T19:40:41.845Z,15.55
2022-08-11T19:46:11.409Z,15.51
2022-08-11T19:51:33.628Z,15.47
2022-08-11T19:57:04.245Z,15.38
2022-08-11T20:02:48.561Z,15.30
2022-08-11T20:09:16.275Z,15.29
2022-08-11T20:14:48.970Z,15.24
2022-08-11T20:20:39.204Z,15.14
2022-08-11T20:26:30.793Z,15.05
2022-08-11T20:32:09.458Z,14.99
2022-08-11T20:37:54.700Z,14.97
2022-08-11T20:44:07.469Z,14.89
2022-08-11T20:50:02.924Z,14.81
2022-08-11T20:56:10.939Z,14.77
2022-08-11T21:09:00.819Z,14.66
2022-08-11T21:15:38.681Z,14.60
2022-08-11T21:22:03.500Z,14.49
2022-08-11T21:28:34.516Z,14.39
2022-08-11T21:34:55.919Z,14.30
2022-08-11T21:41:41.463Z,14.21
2022-08-11T21:48:38.206Z,14.13
2022-08-11T21:54:53.024Z,14.05
2022-08-11T22:01:34.759Z,13.99
2022-08-11T22:08:38.208Z,13.94
2022-08-11T22:15:40.099Z,13.88
2022-08-11T22:22:52.127Z,13.81
2022-08-11T22:29:50.767Z,13.80
2022-08-11T22:36:55.437Z,13.77
2022-08-11T22:43:46.136Z,13.71
2022-08-11T22:50:48.147Z,13.66
2022-08-11T22:58:00.156Z,13.61
2022-08-11T23:05:03.245Z,13.53
2022-08-11T23:12:04.719Z,13.46
2022-08-11T23:18:52.475Z,13.39
2022-08-11T23:25:43.827Z,13.33
2022-08-11T23:32:34.781Z,13.28
2022-08-11T23:39:06.295Z,13.22
2022-08-11T23:45:04.180Z,13.19
2022-08-11T23:51:58.530Z,13.19
2022-08-11T23:58:31.982Z,13.21
